createdAt,value
2022-08-21T00:00:45.985Z,100273.75
2022-08-21T00:03:17.888Z,100267.56
2022-08-21T00:05:50.464Z,100263.56
2022-08-21T00:08:19.206Z,100277.84
2022-08-21T00:10:48.280Z,100305.38
2022-08-21T00:13:19.212Z,100267.25
2022-08-21T00:15:48.379Z,100271.63
2022-08-21T00:18:17.166Z,100232.22
2022-08-21T00:20:46.820Z,100291.59
2022-08-21T00:23:15.959Z,100263.31
2022-08-21T00:25:47.617Z,100276.78
2022-08-21T00:28:17.677Z,100266.25
2022-08-21T00:30:46.888Z,100223.72
2022-08-21T00:33:15.843Z,100217.22
2022-08-21T00:35:50.519Z,100227.19
2022-08-21T00:38:18.918Z,100198.00
2022-08-21T00:40:49.407Z,100202.50
2022-08-21T00:43:26.034Z,100166.50
2022-08-21T00:45:55.052Z,100136.22
2022-08-21T00:48:24.313Z,100095.16
2022-08-21T00:50:57.903Z,100090.34
2022-08-21T00:53:27.221Z,100078.31
2022-08-21T00:55:56.777Z,100090.94
2022-08-21T00:58:29.914Z,100028.16
2022-08-21T01:00:59.187Z,100046.53
2022-08-21T01:03:27.764Z,100029.06
2022-08-21T01:05:56.695Z,100044.47
2022-08-21T01:08:25.400Z,100026.19
2022-08-21T01:10:55.261Z,100028.78
2022-08-21T01:13:25.850Z,100016.75
2022-08-21T01:15:57.571Z,99986.81
2022-08-21T01:18:28.406Z,100019.28
2022-08-21T01:21:12.626Z,100009.03
2022-08-21T01:23:45.133Z,99975.88
2022-08-21T01:26:15.149Z,99990.72
2022-08-21T01:28:50.299Z,99968.59
2022-08-21T01:31:26.136Z,99948.94
2022-08-21T01:34:06.191Z,99901.66
2022-08-21T01:36:40.821Z,99904.66
2022-08-21T01:39:08.364Z,99906.72
2022-08-21T01:41:36.742Z,99854.88
2022-08-21T01:44:14.063Z,99849.13
2022-08-21T01:46:46.821Z,99815.72
2022-08-21T01:49:25.906Z,99885.50
2022-08-21T01:52:12.832Z,99919.94
2022-08-21T01:54:42.063Z,99872.16
2022-08-21T01:57:17.032Z,99895.16
2022-08-21T01:59:46.129Z,99933.34
2022-08-21T02:02:14.600Z,99909.59
2022-08-21T02:04:42.857Z,99926.63
2022-08-21T02:07:18.071Z,99862.50
2022-08-21T02:09:46.388Z,99866.41
2022-08-21T02:12:15.251Z,99894.09
2022-08-21T02:14:52.435Z,99877.50
2022-08-21T02:17:27.814Z,99912.00
2022-08-21T02:19:56.200Z,99926.84
2022-08-21T02:22:48.374Z,99876.66
2022-08-21T02:25:15.045Z,99835.13
2022-08-21T02:27:48.774Z,99895.69
2022-08-21T02:30:26.650Z,99901.19
2022-08-21T02:32:54.982Z,99921.03
2022-08-21T02:35:24.354Z,99847.91
2022-08-21T02:37:56.561Z,99845.06
2022-08-21T02:40:28.115Z,99874.13
2022-08-21T02:42:59.516Z,99826.41
2022-08-21T02:45:29.732Z,99894.00
2022-08-21T02:48:01.261Z,99844.91
2022-08-21T02:50:35.136Z,99856.56
2022-08-21T02:53:17.744Z,99879.78
2022-08-21T02:55:48.631Z,99870.91
2022-08-21T02:58:19.325Z,99900.13
2022-08-21T03:00:47.961Z,99870.38
2022-08-21T03:03:16.207Z,99812.03
2022-08-21T03:05:46.029Z,99846.16
2022-08-21T03:08:19.861Z,99900.13
2022-08-21T03:10:51.751Z,99859.44
2022-08-21T03:13:22.076Z,99881.47
2022-08-21T03:15:50.876Z,99808.16
2022-08-21T03:18:20.015Z,99899.31
2022-08-21T03:20:49.046Z,99889.75
2022-08-21T03:23:20.091Z,99896.78
2022-08-21T03:25:52.103Z,99809.31
2022-08-21T03:28:24.984Z,99870.00
2022-08-21T03:30:54.427Z,99918.41
2022-08-21T03:33:31.879Z,99833.91
2022-08-21T03:36:03.239Z,99903.03
2022-08-21T03:38:34.870Z,99869.09
2022-08-21T03:41:16.497Z,99859.81
2022-08-21T03:43:44.895Z,99889.22
2022-08-21T03:46:16.236Z,99928.50
2022-08-21T03:48:44.703Z,99884.75
2022-08-21T03:51:13.230Z,99971.53
2022-08-21T03:53:43.092Z,100004.56
2022-08-21T03:56:17.918Z,99973.97
2022-08-21T03:58:47.172Z,100009.41
2022-08-21T04:01:16.048Z,100040.88
2022-08-21T04:03:44.465Z,99976.16
2022-08-21T04:06:13.088Z,100006.72
2022-08-21T04:08:48.439Z,100067.66
2022-08-21T04:11:17.377Z,100081.06
2022-08-21T04:13:45.606Z,100068.09
2022-08-21T04:16:14.152Z,100084.63
2022-08-21T04:18:43.914Z,100144.97
2022-08-21T04:21:13.687Z,100046.47
2022-08-21T04:23:42.449Z,100134.06
2022-08-21T04:26:12.272Z,100151.34
2022-08-21T04:28:40.699Z,100172.34
2022-08-21T04:31:09.145Z,100151.72
2022-08-21T04:33:37.553Z,100227.94
2022-08-21T04:36:07.890Z,100236.16
2022-08-21T04:38:37.501Z,100211.84
2022-08-21T04:41:07.868Z,100178.53
2022-08-21T04:43:37.888Z,100229.16
2022-08-21T04:46:06.731Z,100252.00
2022-08-21T04:48:35.347Z,100248.38
2022-08-21T04:51:10.125Z,100246.69
2022-08-21T04:53:40.782Z,100292.28
2022-08-21T04:56:12.522Z,100301.34
2022-08-21T04:59:00.052Z,100366.25
2022-08-21T05:01:31.314Z,100302.53
2022-08-21T05:04:02.611Z,100350.13
2022-08-21T05:06:32.839Z,100353.22
2022-08-21T05:09:02.161Z,100352.69
2022-08-21T05:11:32.194Z,100341.47
2022-08-21T05:14:01.895Z,100389.06
2022-08-21T05:16:36.904Z,100460.22
2022-08-21T05:19:06.426Z,100382.88
2022-08-21T05:21:34.644Z,100409.13
2022-08-21T05:24:03.076Z,100409.38
2022-08-21T05:26:32.084Z,100478.84
2022-08-21T05:29:02.225Z,100396.72
2022-08-21T05:31:30.800Z,100427.69
2022-08-21T05:34:01.709Z,100463.19
2022-08-21T05:36:31.730Z,100414.19
2022-08-21T05:39:00.271Z,100416.75
2022-08-21T05:41:28.560Z,100474.38
2022-08-21T05:43:56.987Z,100498.94
2022-08-21T05:46:27.077Z,100546.97
2022-08-21T05:48:55.478Z,100552.09
2022-08-21T05:51:23.877Z,100597.81
2022-08-21T05:53:52.272Z,100565.28
2022-08-21T05:56:20.664Z,100603.78
2022-08-21T05:58:51.961Z,100610.31
2022-08-21T06:01:20.441Z,100716.22
2022-08-21T06:03:51.057Z,100717.91
2022-08-21T06:06:19.914Z,100702.13
2022-08-21T06:08:48.154Z,100750.97
2022-08-21T06:11:16.367Z,100798.56
2022-08-21T06:13:44.517Z,100774.91
2022-08-21T06:16:15.698Z,100784.66
2022-08-21T06:18:46.035Z,100869.84
2022-08-21T06:21:16.358Z,100902.81
2022-08-21T06:23:45.066Z,100927.72
2022-08-21T06:26:16.929Z,100966.03
2022-08-21T06:28:45.564Z,101076.78
2022-08-21T06:31:16.984Z,101086.59
2022-08-21T06:33:45.397Z,101092.38
2022-08-21T06:36:18.803Z,101030.09
2022-08-21T06:38:54.850Z,101094.66
2022-08-21T06:41:27.144Z,101120.69
2022-08-21T06:43:56.763Z,101149.69
2022-08-21T06:46:25.376Z,101113.75
2022-08-21T06:48:53.786Z,101192.38
2022-08-21T06:51:32.022Z,101234.31
2022-08-21T06:54:08.409Z,101201.69
2022-08-21T06:56:39.050Z,101176.22
2022-08-21T06:59:08.198Z,101105.97
2022-08-21T07:01:37.617Z,101092.06
2022-08-21T07:04:06.140Z,101172.69
2022-08-21T07:06:36.036Z,101221.53
2022-08-21T07:09:13.888Z,101212.19
2022-08-21T07:11:44.124Z,101298.34
2022-08-21T07:14:20.203Z,101306.25
2022-08-21T07:16:49.388Z,101316.28
2022-08-21T07:19:44.762Z,101343.09
2022-08-21T07:22:08.691Z,101339.66
2022-08-21T07:24:37.388Z,101448.03
2022-08-21T07:29:52.682Z,101373.69
2022-08-21T07:32:24.099Z,101404.88
2022-08-21T07:34:52.600Z,101421.38
2022-08-21T07:37:22.428Z,101355.09
2022-08-21T07:39:58.618Z,101420.91
2022-08-21T07:42:43.837Z,101502.31
2022-08-21T07:45:13.707Z,101535.69
2022-08-21T07:47:44.036Z,101513.47
2022-08-21T07:50:14.880Z,101633.75
2022-08-21T07:53:00.934Z,101612.59
2022-08-21T07:55:40.465Z,101634.22
2022-08-21T07:58:30.281Z,101606.00
2022-08-21T08:01:02.908Z,101745.38
2022-08-21T08:03:32.759Z,101734.31
2022-08-21T08:06:30.505Z,101787.44
2022-08-21T08:12:05.339Z,101788.38
2022-08-21T08:14:39.739Z,101821.84
2022-08-21T08:17:09.778Z,101887.75
2022-08-21T08:19:39.956Z,101993.66
2022-08-21T08:22:15.765Z,102075.94
2022-08-21T08:24:47.760Z,102175.84
2022-08-21T08:27:19.826Z,102165.44
2022-08-21T08:29:53.413Z,102328.56
2022-08-21T08:32:23.910Z,102344.66
2022-08-21T08:34:53.900Z,102480.41
2022-08-21T08:37:24.033Z,102573.13
2022-08-21T08:40:11.214Z,102613.44
2022-08-21T08:42:43.463Z,102650.56
2022-08-21T08:45:17.538Z,102720.09
2022-08-21T08:47:49.437Z,102731.78
2022-08-21T08:50:24.577Z,102784.31
2022-08-21T08:53:00.109Z,103007.50
2022-08-21T08:55:39.480Z,103065.03
2022-08-21T08:58:11.258Z,103304.22
2022-08-21T09:00:48.337Z,103424.34
2022-08-21T09:03:19.355Z,103681.56
2022-08-21T09:05:50.722Z,103947.69
2022-08-21T09:08:50.922Z,103894.06
2022-08-21T09:11:30.480Z,103933.38
2022-08-21T09:14:10.192Z,104124.06
2022-08-21T09:17:03.957Z,104196.25
2022-08-21T09:19:50.074Z,104363.72
2022-08-21T09:22:35.476Z,104478.69
2022-08-21T09:25:12.282Z,104373.28
2022-08-21T09:27:53.983Z,104250.34
2022-08-21T09:31:23.435Z,104132.81
2022-08-21T09:34:51.708Z,104210.53
2022-08-21T09:44:57.575Z,103678.44
2022-08-21T09:48:48.269Z,103436.94
2022-08-21T09:59:09.367Z,103370.47
2022-08-21T10:03:13.745Z,103281.88
2022-08-21T10:06:35.610Z,103422.38
2022-08-21T10:09:28.539Z,103321.47
2022-08-21T10:12:55.881Z,103411.03
2022-08-21T10:16:23.215Z,103376.59
2022-08-21T10:19:32.692Z,103442.38
2022-08-21T10:25:57.205Z,103414.81
2022-08-21T10:29:05.270Z,103376.59
2022-08-21T10:32:31.798Z,103348.84
2022-08-21T10:35:38.897Z,103467.75
2022-08-21T10:39:12.117Z,103466.03
2022-08-21T10:42:47.870Z,103446.56
2022-08-21T10:46:05.328Z,103574.84
2022-08-21T10:49:04.992Z,103703.78
2022-08-21T10:59:22.887Z,103978.16
2022-08-21T11:01:49.920Z,103800.66
2022-08-21T11:07:57.764Z,103570.09
2022-08-21T11:11:08.819Z,103560.41
2022-08-21T11:14:08.478Z,103352.34
2022-08-21T11:17:25.776Z,103290.44
2022-08-21T11:20:32.641Z,103362.25
2022-08-21T11:23:26.810Z,103232.59
2022-08-21T11:26:08.930Z,103234.44
2022-08-21T11:28:43.975Z,103221.16
2022-08-21T11:31:40.060Z,103319.19
2022-08-21T11:35:01.894Z,103400.00
2022-08-21T11:37:59.948Z,103477.38
2022-08-21T11:41:16.343Z,103239.25
2022-08-21T11:44:14.175Z,103307.81
2022-08-21T11:47:27.159Z,103394.81
2022-08-21T11:57:39.344Z,103427.13
2022-08-21T12:00:42.182Z,103330.78
2022-08-21T12:03:34.996Z,103265.53
2022-08-21T12:06:31.548Z,103352.75
2022-08-21T12:13:52.514Z,103353.13
2022-08-21T12:27:48.109Z,104150.19
2022-08-21T12:30:35.169Z,104078.59
2022-08-21T12:33:05.989Z,104208.09
2022-08-21T12:35:39.439Z,104413.66
2022-08-21T12:38:17.993Z,104612.44
2022-08-21T12:40:54.428Z,104648.31
2022-08-21T12:43:32.488Z,104610.47
2022-08-21T12:46:04.363Z,104474.41
2022-08-21T12:48:37.589Z,104356.72
2022-08-21T12:51:12.435Z,104305.78
2022-08-21T12:53:46.651Z,104247.88
2022-08-21T12:56:23.413Z,104063.13
2022-08-21T12:58:55.778Z,104104.25
2022-08-21T13:01:29.989Z,104152.97
2022-08-21T13:04:06.050Z,104309.66
2022-08-21T13:06:40.482Z,104247.19
2022-08-21T13:09:12.642Z,104258.72
2022-08-21T13:11:43.939Z,104373.03
2022-08-21T13:14:27.267Z,104318.19
2022-08-21T13:17:00.179Z,104264.91
2022-08-21T13:19:30.552Z,104122.31
2022-08-21T13:21:58.915Z,104043.88
2022-08-21T13:24:44.195Z,104030.41
2022-08-21T13:27:21.578Z,103986.44
2022-08-21T13:29:54.147Z,104084.53
2022-08-21T13:32:28.635Z,104077.34
2022-08-21T13:34:56.990Z,103999.53
2022-08-21T13:37:27.306Z,104012.72
2022-08-21T13:39:55.477Z,104051.00
2022-08-21T13:42:25.175Z,104068.81
2022-08-21T13:44:55.249Z,104152.31
2022-08-21T13:47:25.426Z,104078.84
2022-08-21T13:49:59.119Z,104109.72
2022-08-21T13:52:28.739Z,104318.66
2022-08-21T13:54:59.307Z,104770.16
2022-08-21T13:57:30.885Z,105060.53
2022-08-21T14:00:19.849Z,105132.13
2022-08-21T14:02:54.206Z,105112.03
2022-08-21T14:05:24.354Z,105331.38
2022-08-21T14:07:59.906Z,105875.19
2022-08-21T14:10:31.475Z,106305.56
2022-08-21T14:13:03.411Z,106769.59
2022-08-21T14:15:35.343Z,107090.28
2022-08-21T14:18:17.044Z,107296.63
2022-08-21T14:20:46.030Z,107395.28
2022-08-21T14:23:25.075Z,107195.53
2022-08-21T14:25:54.063Z,107141.13
2022-08-21T14:28:27.884Z,107505.69
2022-08-21T14:30:57.979Z,107579.19
2022-08-21T14:33:33.213Z,107978.88
2022-08-21T14:36:01.911Z,107761.25
2022-08-21T14:38:31.206Z,108469.91
2022-08-21T14:41:02.203Z,108480.66
2022-08-21T14:43:30.518Z,108632.59
2022-08-21T14:45:59.126Z,108484.09
2022-08-21T14:48:28.765Z,108354.41
2022-08-21T14:51:00.328Z,108036.41
2022-08-21T14:53:29.260Z,108338.56
2022-08-21T14:56:06.628Z,108829.88
2022-08-21T14:58:36.847Z,109332.38
2022-08-21T15:01:06.647Z,109684.69
2022-08-21T15:03:36.296Z,109768.09
2022-08-21T15:06:06.627Z,110329.97
2022-08-21T15:08:34.710Z,110810.22
2022-08-21T15:11:12.415Z,110506.56
2022-08-21T15:13:42.589Z,110465.03
2022-08-21T15:16:12.834Z,110305.34
2022-08-21T15:18:43.819Z,109198.25
2022-08-21T15:21:12.367Z,108815.16
2022-08-21T15:23:43.786Z,108859.69
2022-08-21T15:26:17.126Z,109121.25
2022-08-21T15:28:45.361Z,109192.75
2022-08-21T15:31:16.067Z,108411.16
2022-08-21T15:33:46.002Z,107195.47
2022-08-21T15:36:14.139Z,106200.00
2022-08-21T15:38:42.227Z,105527.00
2022-08-21T15:41:10.151Z,105053.97
2022-08-21T15:43:50.199Z,104587.97
2022-08-21T15:46:20.569Z,104253.81
2022-08-21T15:48:50.200Z,104098.16
2022-08-21T15:51:19.233Z,103944.97
2022-08-21T15:53:48.432Z,104195.88
2022-08-21T15:56:23.459Z,104665.66
2022-08-21T15:58:51.938Z,105387.78
2022-08-21T16:01:20.545Z,106270.97
2022-08-21T16:03:52.470Z,106508.81
2022-08-21T16:06:38.262Z,106366.06
2022-08-21T16:09:11.620Z,105809.44
2022-08-21T16:11:43.696Z,105955.63
2022-08-21T16:14:17.453Z,105874.16
2022-08-21T16:16:45.541Z,105441.63
2022-08-21T16:19:16.113Z,104857.25
2022-08-21T16:21:46.196Z,104342.03
2022-08-21T16:24:14.906Z,103964.59
2022-08-21T16:26:43.175Z,103667.31
2022-08-21T16:29:11.769Z,103448.22
2022-08-21T16:31:43.417Z,103157.09
2022-08-21T16:34:18.059Z,103135.94
2022-08-21T16:36:46.461Z,102840.72
2022-08-21T16:39:14.716Z,102738.03
2022-08-21T16:41:43.256Z,102540.09
2022-08-21T16:44:11.402Z,102485.09
2022-08-21T16:46:44.132Z,102369.16
2022-08-21T16:49:12.271Z,102393.72
2022-08-21T16:51:41.822Z,102327.06
2022-08-21T16:54:10.329Z,102224.50
2022-08-21T16:56:40.433Z,102244.19
2022-08-21T16:59:09.527Z,102226.91
2022-08-21T17:01:37.846Z,102120.13
2022-08-21T17:04:06.457Z,102028.81
2022-08-21T17:06:34.541Z,101975.38
2022-08-21T17:09:04.477Z,101976.78
2022-08-21T17:11:37.210Z,101843.13
2022-08-21T17:14:09.854Z,101790.41
2022-08-21T17:16:39.755Z,101797.50
2022-08-21T17:19:08.335Z,101754.03
2022-08-21T17:21:39.181Z,101713.78
2022-08-21T17:24:09.814Z,101687.22
2022-08-21T17:26:39.390Z,101639.69
2022-08-21T17:29:13.943Z,101510.59
2022-08-21T17:31:44.256Z,101447.25
2022-08-21T17:34:15.639Z,101418.53
2022-08-21T17:36:43.960Z,101368.25
2022-08-21T17:39:22.455Z,101289.91
2022-08-21T17:41:58.035Z,101257.84
2022-08-21T17:44:27.079Z,101178.97
2022-08-21T17:46:58.033Z,101168.91
2022-08-21T17:49:26.684Z,101085.84
2022-08-21T17:51:55.039Z,101047.50
2022-08-21T17:54:27.737Z,100990.63
2022-08-21T17:56:57.343Z,100931.97
2022-08-21T17:59:26.040Z,100944.13
2022-08-21T18:02:01.341Z,100915.09
2022-08-21T18:04:30.252Z,100894.81
2022-08-21T18:06:58.852Z,100805.44
2022-08-21T18:09:28.717Z,100793.19
2022-08-21T18:11:58.235Z,100751.03
2022-08-21T18:14:29.930Z,100687.06
2022-08-21T18:16:58.477Z,100616.53
2022-08-21T18:19:27.050Z,100620.81
2022-08-21T18:21:58.823Z,100568.31
2022-08-21T18:24:32.200Z,100569.53
2022-08-21T18:27:00.560Z,100542.72
2022-08-21T18:29:29.652Z,100489.94
2022-08-21T18:31:58.386Z,100467.38
2022-08-21T18:34:31.870Z,100445.34
2022-08-21T18:37:09.994Z,100396.63
2022-08-21T18:39:47.145Z,100415.22
2022-08-21T20:29:43.025Z,99665.13
2022-08-21T20:32:13.499Z,99591.34
2022-08-21T20:34:45.119Z,99572.41
2022-08-21T20:37:37.138Z,99593.88
2022-08-21T20:40:33.063Z,99590.69
2022-08-21T20:50:01.746Z,99743.66
2022-08-21T20:53:00.281Z,99734.22
2022-08-21T20:55:49.737Z,99706.53
2022-08-21T20:59:01.393Z,99767.63
2022-08-21T21:02:20.370Z,99849.88
2022-08-21T21:05:25.423Z,99936.03
2022-08-21T21:08:54.577Z,99949.47
2022-08-21T21:12:14.724Z,99908.63
2022-08-21T21:14:59.078Z,99872.03
2022-08-21T21:18:05.140Z,99883.44
2022-08-21T21:27:34.940Z,99869.03
2022-08-21T21:36:35.460Z,99761.75
2022-08-21T21:39:17.433Z,99708.75
2022-08-21T21:41:54.332Z,99636.59
2022-08-21T21:44:47.790Z,99694.81
2022-08-21T21:47:32.256Z,99726.34
2022-08-21T21:50:18.912Z,99719.31
2022-08-21T21:53:12.359Z,99819.81
2022-08-21T21:56:07.793Z,99755.53
2022-08-21T21:58:49.001Z,99760.56
2022-08-21T22:01:39.448Z,99783.56
2022-08-21T22:04:17.119Z,99771.66
2022-08-21T22:07:10.805Z,99791.97
2022-08-21T22:09:45.824Z,99829.41
2022-08-21T22:12:30.578Z,99830.44
2022-08-21T22:14:58.984Z,99875.72
2022-08-21T22:17:49.023Z,99894.88
2022-08-21T22:20:25.110Z,99945.56
2022-08-21T22:22:54.582Z,99900.25
2022-08-21T22:25:27.630Z,99927.28
2022-08-21T22:28:03.754Z,99951.63
2022-08-21T22:30:43.066Z,99933.66
2022-08-21T22:33:19.953Z,99937.34
2022-08-21T22:35:51.642Z,99935.34
2022-08-21T22:38:43.291Z,99920.72
2022-08-21T22:41:17.257Z,99977.34
2022-08-21T22:43:55.256Z,99926.75
2022-08-21T22:46:31.489Z,99968.78
2022-08-21T22:49:06.271Z,99980.19
2022-08-21T22:51:40.791Z,99928.78
2022-08-21T22:57:01.892Z,99929.44
2022-08-21T22:59:34.909Z,99901.94
2022-08-21T23:02:07.866Z,99895.72
2022-08-21T23:04:48.916Z,99843.44
2022-08-21T23:07:33.986Z,99844.50
2022-08-21T23:10:02.895Z,99893.19
2022-08-21T23:12:38.806Z,99886.47
2022-08-21T23:15:17.941Z,99869.03
2022-08-21T23:17:53.541Z,99831.03
2022-08-21T23:20:29.762Z,99873.38
2022-08-21T23:23:06.986Z,99864.63
2022-08-21T23:25:51.648Z,99897.22
2022-08-21T23:28:33.030Z,99856.88
2022-08-21T23:31:11.731Z,99816.41
2022-08-21T23:34:01.028Z,99817.94
2022-08-21T23:37:02.338Z,99893.19
2022-08-21T23:39:51.504Z,99896.50
2022-08-21T23:42:53.295Z,99927.25
2022-08-21T23:45:34.544Z,99903.56
2022-08-21T23:48:19.850Z,99969.41
2022-08-21T23:51:03.832Z,99988.19
2022-08-21T23:53:50.569Z,99958.00
2022-08-21T23:56:27.697Z,99926.09
2022-08-21T23:59:04.968Z,99881.25
